Register - Login
Views: 88342642
Main - Memberlist - Active users - Calendar - Wiki - IRC Chat - Online users
Ranks - Rules/FAQ - JCS - Stats - Latest Posts - Color Chart - Smilies
01-22-18 03:51:55 AM


3461 users found.
Sort by: Total posts | EXP | User name | Registration date | Age
Sex: Male | Female | N/A | All
Powerlevel: Banned | Normal | Moderator | Administrator | All

# Username Registered on Posts Level EXP
2651.   Rulep 08-28-09 01:31:10 AM 0 1 0
2652.   skaterboi 08-27-09 05:19:07 PM 0 1 0
2653.   frankil 08-27-09 05:08:28 PM 1 3 55
2654.   Sinsmalice 08-27-09 04:43:47 AM 27 12 7773
2655.   sonicman210 08-27-09 01:28:09 AM 1 3 55
2656. gridatttack 08-26-09 07:36:05 PM 375 39 402386
2657.   LIsReal2041 08-25-09 02:38:08 PM 2 4 156
2658.   Awesome turtwig 08-24-09 02:33:16 PM 9 8 1496
2659.   EngineR3 08-24-09 10:40:59 AM 16 10 3547
2660.   JKDThe1AndOnly 08-24-09 12:02:39 AM 0 1 0
2661.   Iannoble91 08-23-09 05:48:33 PM 5 6 619
2662.   Kario 08-22-09 06:14:54 PM 10 8 1753
2663.   wes 08-21-09 06:47:32 AM 0 1 0
2664. MobleSprout 08-20-09 11:56:30 PM 25 12 6932
2665.   Online 08-17-09 08:44:39 PM 1 3 55
2666.   arkaman 08-17-09 09:12:07 AM 1 3 55
2667.   Martboo48 08-17-09 03:34:35 AM 15 10 3224
2668.   SonicXSS 08-16-09 08:45:30 PM 0 1 0
2669.   Icemask 08-15-09 09:16:33 PM 2 4 157
2670.   Namco 08-15-09 04:19:42 PM 0 1 0
2671.   model deoxzx 08-12-09 03:51:31 PM 0 1 0
2672.   Bobly 08-11-09 04:09:07 PM 2 4 157
2673.   Bond697 08-10-09 11:31:50 AM 5 6 621
2674.   Gabu 08-10-09 03:51:33 AM 9721 161 53252215
2675.   deconruler 08-09-09 02:02:38 PM 1 3 55
2676.   amaury999 08-09-09 01:21:11 PM 0 1 0
2677.   Streetking 08-09-09 01:06:10 PM 0 1 0
2678.   Super_Black_Mario 08-09-09 12:50:02 AM 0 1 0
2679.   8 red coin 08-08-09 07:53:31 PM 0 1 0
2680.   Neonsin 08-07-09 09:51:00 PM 0 1 0
2681.   Vader2401 08-07-09 07:33:46 PM 1 3 55
2682.   Aamelo 08-06-09 06:53:11 PM 46 16 17343
2683.   XSuperGamer 08-06-09 06:39:06 PM 17 10 3896
2684.   sonicadventura 08-05-09 07:16:00 PM 0 1 0
2685.   Toast 08-05-09 02:06:21 PM 0 1 0
2686. livetek 08-05-09 06:53:06 AM 2 4 157
2687.   RPM 08-04-09 10:34:45 PM 28 13 8239
2688.   davem314 08-04-09 03:38:17 AM 3 5 288
2689.   bigchin 08-03-09 09:57:35 PM 3 5 288
2690.   MysterBlock 08-03-09 07:47:03 PM 1 3 55
2691.   Lightspeed97 08-01-09 07:56:30 AM 3 5 289
2692.   supersuvo64 07-31-09 11:23:25 PM 4 5 445
2693.   dalc789 07-29-09 03:04:16 PM 0 1 0
2694.   Kironide 07-29-09 03:01:03 AM 8 7 1259
2695. dirbaio 07-28-09 09:54:15 AM -1288 NaN NaN
2696.   Mel 07-26-09 08:05:30 PM 12 9 2314
2697.   Acelp21 07-25-09 03:28:54 PM 1 3 55
2698.   LadySTRiPES 07-23-09 10:18:57 AM 148 26 100324
2699.   codeman 07-21-09 08:30:11 PM 1 3 55
2700. Cheatz 07-19-09 04:05:07 PM 4 5 446
Pages: 1 2 3 4 5 6 7 8 9 10 11 12 13 14 15 16 17 18 19 20 21 22 23 24 25 26 27 28 29 30 31 32 33 34 35 36 37 38 39 40 41 42 43 44 45 46 47 48 49 50 51 52 53 54 55 56 57 58 59 60 61 62 63 64 65 66 67 68 69 70



Rusted Logic

Acmlmboard - commit a6a22e7 [2018-01-14]
©2000-2018 Acmlm, Xkeeper, Inuyasha, et al.

11 database queries.
Query execution time: 0.209286 seconds
Script execution time: 0.035453 seconds
Total render time: 0.244739 seconds